Terminal Aerodrome Forecast
Issued by NWS Charleston, WV

Current Version | Previous Version | Graphics & Text | Print | Product List | Glossary On
Versions: 1 2 3 4 5 6 7 8 9 10 11 12 13 14 15 16 17 18 19 20 21 22 23 24
094
FTUS41 KRLX 262323
TAFPKB
TAF
KPKB 262323Z 2700/2724 28007KT P6SM FEW060
     FM270200 VRB03KT P6SM SCT050
     FM270500 VRB03KT P6SM BKN070
     FM271300 28004KT P6SM SCT045
     FM271700 29010KT P6SM BKN060=

USA.gov is the U.S. government's official web portal to all federal, state and local government web resources and services.